sensor_id;sensor_type;location;lat;lon;timestamp;temperature;humidity
35894;DHT22;21994;48.204;16.516;2022-07-25T00:02:20;17.90;99.90
35894;DHT22;21994;48.204;16.516;2022-07-25T00:04:46;18.00;99.90
35894;DHT22;21994;48.204;16.516;2022-07-25T00:07:12;17.90;99.90
35894;DHT22;21994;48.204;16.516;2022-07-25T00:09:38;17.80;99.90
35894;DHT22;21994;48.204;16.516;2022-07-25T00:12:05;17.80;99.90
35894;DHT22;21994;48.204;16.516;2022-07-25T00:14:31;17.80;99.90
35894;DHT22;21994;48.204;16.516;2022-07-25T00:16:57;17.70;99.90
35894;DHT22;21994;48.204;16.516;2022-07-25T00:19:23;17.60;99.90
35894;DHT22;21994;48.204;16.516;2022-07-25T00:21:49;17.60;99.90
35894;DHT22;21994;48.204;16.516;2022-07-25T00:24:15;17.70;99.90
35894;DHT22;21994;48.204;16.516;2022-07-25T00:26:41;17.60;99.90
35894;DHT22;21994;48.204;16.516;2022-07-25T00:29:07;17.50;99.90
35894;DHT22;21994;48.204;16.516;2022-07-25T00:31:33;17.50;99.90
35894;DHT22;21994;48.204;16.516;2022-07-25T00:33:59;17.50;99.90
35894;DHT22;21994;48.204;16.516;2022-07-25T00:36:25;17.40;99.90
35894;DHT22;21994;48.204;16.516;2022-07-25T00:38:50;17.40;99.90
35894;DHT22;21994;48.204;16.516;2022-07-25T00:41:16;17.40;99.90
35894;DHT22;21994;48.204;16.516;2022-07-25T00:43:44;17.40;99.90
35894;DHT22;21994;48.204;16.516;2022-07-25T00:46:14;17.40;99.90
35894;DHT22;21994;48.204;16.516;2022-07-25T00:48:41;17.40;99.90
35894;DHT22;21994;48.204;16.516;2022-07-25T00:51:09;17.30;99.90
35894;DHT22;21994;48.204;16.516;2022-07-25T00:53:37;17.30;99.90
35894;DHT22;21994;48.204;16.516;2022-07-25T00:56:04;17.30;99.90
35894;DHT22;21994;48.204;16.516;2022-07-25T00:58:31;17.30;99.90
35894;DHT22;21994;48.204;16.516;2022-07-25T01:00:58;17.30;99.90
35894;DHT22;21994;48.204;16.516;2022-07-25T01:03:25;17.30;99.90
35894;DHT22;21994;48.204;16.516;2022-07-25T01:05:51;17.20;99.90
35894;DHT22;21994;48.204;16.516;2022-07-25T01:08:18;17.20;99.90
35894;DHT22;21994;48.204;16.516;2022-07-25T01:10:45;17.30;99.90
35894;DHT22;21994;48.204;16.516;2022-07-25T01:13:12;17.30;99.90
35894;DHT22;21994;48.204;16.516;2022-07-25T01:15:38;17.20;99.90
35894;DHT22;21994;48.204;16.516;2022-07-25T01:18:04;17.10;99.90
35894;DHT22;21994;48.204;16.516;2022-07-25T01:20:31;17.10;99.90
35894;DHT22;21994;48.204;16.516;2022-07-25T01:22:58;17.20;99.90
35894;DHT22;21994;48.204;16.516;2022-07-25T01:25:25;17.10;99.90
35894;DHT22;21994;48.204;16.516;2022-07-25T01:27:53;17.00;99.90
35894;DHT22;21994;48.204;16.516;2022-07-25T01:30:20;17.00;99.90
35894;DHT22;21994;48.204;16.516;2022-07-25T01:32:47;17.00;99.90
35894;DHT22;21994;48.204;16.516;2022-07-25T01:35:13;16.90;99.90
35894;DHT22;21994;48.204;16.516;2022-07-25T01:37:40;16.80;99.90
35894;DHT22;21994;48.204;16.516;2022-07-25T01:40:07;16.70;99.90
35894;DHT22;21994;48.204;16.516;2022-07-25T01:42:33;16.70;99.90
35894;DHT22;21994;48.204;16.516;2022-07-25T01:44:59;16.60;99.90
35894;DHT22;21994;48.204;16.516;2022-07-25T01:47:25;16.60;99.90
35894;DHT22;21994;48.204;16.516;2022-07-25T01:49:51;16.60;99.90
35894;DHT22;21994;48.204;16.516;2022-07-25T01:52:18;16.70;99.90
35894;DHT22;21994;48.204;16.516;2022-07-25T01:54:43;16.70;99.90
35894;DHT22;21994;48.204;16.516;2022-07-25T01:57:09;16.70;99.90
35894;DHT22;21994;48.204;16.516;2022-07-25T01:59:37;16.60;99.90
35894;DHT22;21994;48.204;16.516;2022-07-25T02:02:05;16.50;99.90
35894;DHT22;21994;48.204;16.516;2022-07-25T02:04:32;16.50;99.90
35894;DHT22;21994;48.204;16.516;2022-07-25T02:06:58;16.50;99.90
35894;DHT22;21994;48.204;16.516;2022-07-25T02:09:24;16.50;99.90
35894;DHT22;21994;48.204;16.516;2022-07-25T02:11:50;16.60;99.90
35894;DHT22;21994;48.204;16.516;2022-07-25T02:14:16;16.50;99.90
35894;DHT22;21994;48.204;16.516;2022-07-25T02:16:42;16.50;99.90
35894;DHT22;21994;48.204;16.516;2022-07-25T02:19:08;16.40;99.90
35894;DHT22;21994;48.204;16.516;2022-07-25T02:21:34;16.40;99.90
35894;DHT22;21994;48.204;16.516;2022-07-25T02:24:00;16.30;99.90
35894;DHT22;21994;48.204;16.516;2022-07-25T02:26:26;16.40;99.90
35894;DHT22;21994;48.204;16.516;2022-07-25T02:28:52;16.30;99.90
35894;DHT22;21994;48.204;16.516;2022-07-25T02:31:18;16.20;99.90
35894;DHT22;21994;48.204;16.516;2022-07-25T02:33:44;16.10;99.90
35894;DHT22;21994;48.204;16.516;2022-07-25T02:36:10;16.10;99.90
35894;DHT22;21994;48.204;16.516;2022-07-25T02:38:36;16.10;99.90
35894;DHT22;21994;48.204;16.516;2022-07-25T02:41:03;16.10;99.90
35894;DHT22;21994;48.204;16.516;2022-07-25T02:43:29;16.00;99.90
35894;DHT22;21994;48.204;16.516;2022-07-25T02:45:55;16.10;99.90
35894;DHT22;21994;48.204;16.516;2022-07-25T02:48:21;16.10;99.90
35894;DHT22;21994;48.204;16.516;2022-07-25T02:50:47;16.10;99.90
35894;DHT22;21994;48.204;16.516;2022-07-25T02:53:13;16.00;99.90
35894;DHT22;21994;48.204;16.516;2022-07-25T02:55:39;15.90;99.90
35894;DHT22;21994;48.204;16.516;2022-07-25T02:58:05;16.00;99.90
35894;DHT22;21994;48.204;16.516;2022-07-25T03:00:31;15.90;99.90
35894;DHT22;21994;48.204;16.516;2022-07-25T03:02:57;15.90;99.90
35894;DHT22;21994;48.204;16.516;2022-07-25T03:05:23;15.80;99.90
35894;DHT22;21994;48.204;16.516;2022-07-25T03:07:49;15.90;99.90
35894;DHT22;21994;48.204;16.516;2022-07-25T03:10:17;15.80;99.90
35894;DHT22;21994;48.204;16.516;2022-07-25T03:12:43;15.90;99.90
35894;DHT22;21994;48.204;16.516;2022-07-25T03:15:10;15.80;99.90
35894;DHT22;21994;48.204;16.516;2022-07-25T03:17:38;15.80;99.90
35894;DHT22;21994;48.204;16.516;2022-07-25T03:20:06;15.70;99.90
35894;DHT22;21994;48.204;16.516;2022-07-25T03:22:32;15.70;99.90
35894;DHT22;21994;48.204;16.516;2022-07-25T03:24:58;15.70;99.90
35894;DHT22;21994;48.204;16.516;2022-07-25T03:27:24;15.70;99.90
35894;DHT22;21994;48.204;16.516;2022-07-25T03:29:50;15.70;99.90
35894;DHT22;21994;48.204;16.516;2022-07-25T03:32:16;15.60;99.90
35894;DHT22;21994;48.204;16.516;2022-07-25T03:34:42;15.60;99.90
35894;DHT22;21994;48.204;16.516;2022-07-25T03:37:08;15.60;99.90
35894;DHT22;21994;48.204;16.516;2022-07-25T03:39:34;15.60;99.90
35894;DHT22;21994;48.204;16.516;2022-07-25T03:42:00;15.60;99.90
35894;DHT22;21994;48.204;16.516;2022-07-25T03:44:25;15.60;99.90
35894;DHT22;21994;48.204;16.516;2022-07-25T03:46:51;15.60;99.90
35894;DHT22;21994;48.204;16.516;2022-07-25T03:49:18;15.50;99.90
35894;DHT22;21994;48.204;16.516;2022-07-25T03:51:44;15.60;99.90
35894;DHT22;21994;48.204;16.516;2022-07-25T03:54:10;15.50;99.90
35894;DHT22;21994;48.204;16.516;2022-07-25T03:56:41;15.50;99.90
35894;DHT22;21994;48.204;16.516;2022-07-25T03:59:08;15.50;99.90
35894;DHT22;21994;48.204;16.516;2022-07-25T04:01:36;15.50;99.90
35894;DHT22;21994;48.204;16.516;2022-07-25T04:04:02;15.50;99.90
35894;DHT22;21994;48.204;16.516;2022-07-25T04:06:29;15.50;99.90
35894;DHT22;21994;48.204;16.516;2022-07-25T04:08:55;15.60;99.90
35894;DHT22;21994;48.204;16.516;2022-07-25T04:11:21;15.70;99.90
35894;DHT22;21994;48.204;16.516;2022-07-25T04:13:47;15.80;99.90
35894;DHT22;21994;48.204;16.516;2022-07-25T04:16:14;15.90;99.90
35894;DHT22;21994;48.204;16.516;2022-07-25T04:18:41;16.00;99.90
35894;DHT22;21994;48.204;16.516;2022-07-25T04:21:07;16.00;99.90
35894;DHT22;21994;48.204;16.516;2022-07-25T04:23:34;16.00;99.90
35894;DHT22;21994;48.204;16.516;2022-07-25T04:26:00;16.00;99.90
35894;DHT22;21994;48.204;16.516;2022-07-25T04:28:27;16.10;99.90
35894;DHT22;21994;48.204;16.516;2022-07-25T04:30:53;16.10;99.90
35894;DHT22;21994;48.204;16.516;2022-07-25T04:33:19;16.20;99.90
35894;DHT22;21994;48.204;16.516;2022-07-25T04:35:46;16.20;99.90
35894;DHT22;21994;48.204;16.516;2022-07-25T04:38:12;16.20;99.90
35894;DHT22;21994;48.204;16.516;2022-07-25T04:40:38;16.30;99.90
35894;DHT22;21994;48.204;16.516;2022-07-25T04:43:05;16.30;99.90
35894;DHT22;21994;48.204;16.516;2022-07-25T04:45:31;16.40;99.90
35894;DHT22;21994;48.204;16.516;2022-07-25T04:47:59;16.60;99.90
35894;DHT22;21994;48.204;16.516;2022-07-25T04:50:26;16.70;99.90
35894;DHT22;21994;48.204;16.516;2022-07-25T04:52:52;16.70;99.90
35894;DHT22;21994;48.204;16.516;2022-07-25T04:55:18;16.80;99.90
35894;DHT22;21994;48.204;16.516;2022-07-25T04:57:44;16.80;99.90
35894;DHT22;21994;48.204;16.516;2022-07-25T05:00:12;17.00;99.90
35894;DHT22;21994;48.204;16.516;2022-07-25T05:02:40;17.00;99.90
35894;DHT22;21994;48.204;16.516;2022-07-25T05:05:07;17.10;99.90
35894;DHT22;21994;48.204;16.516;2022-07-25T05:07:36;17.20;99.90
35894;DHT22;21994;48.204;16.516;2022-07-25T05:10:03;17.30;99.90
35894;DHT22;21994;48.204;16.516;2022-07-25T05:12:30;17.60;99.90
35894;DHT22;21994;48.204;16.516;2022-07-25T05:14:56;17.70;99.90
35894;DHT22;21994;48.204;16.516;2022-07-25T05:17:22;17.80;99.90
35894;DHT22;21994;48.204;16.516;2022-07-25T05:19:48;17.80;99.90
35894;DHT22;21994;48.204;16.516;2022-07-25T05:22:14;17.80;99.90
35894;DHT22;21994;48.204;16.516;2022-07-25T05:24:40;17.80;99.90
35894;DHT22;21994;48.204;16.516;2022-07-25T05:27:05;17.80;99.90
35894;DHT22;21994;48.204;16.516;2022-07-25T05:29:32;17.90;99.90
35894;DHT22;21994;48.204;16.516;2022-07-25T05:31:58;18.10;99.90
35894;DHT22;21994;48.204;16.516;2022-07-25T05:34:24;18.20;99.90
35894;DHT22;21994;48.204;16.516;2022-07-25T05:36:50;18.20;99.90
35894;DHT22;21994;48.204;16.516;2022-07-25T05:39:16;18.20;99.90
35894;DHT22;21994;48.204;16.516;2022-07-25T05:41:42;18.30;99.90
35894;DHT22;21994;48.204;16.516;2022-07-25T05:44:08;18.50;99.90
35894;DHT22;21994;48.204;16.516;2022-07-25T05:46:34;18.60;99.90
35894;DHT22;21994;48.204;16.516;2022-07-25T05:49:00;18.70;99.90
35894;DHT22;21994;48.204;16.516;2022-07-25T05:51:27;18.80;99.90
35894;DHT22;21994;48.204;16.516;2022-07-25T05:53:53;18.80;99.90
35894;DHT22;21994;48.204;16.516;2022-07-25T05:56:19;18.80;99.90
35894;DHT22;21994;48.204;16.516;2022-07-25T05:58:45;19.10;99.90
35894;DHT22;21994;48.204;16.516;2022-07-25T06:01:12;19.30;99.90
35894;DHT22;21994;48.204;16.516;2022-07-25T06:03:39;19.50;99.90
35894;DHT22;21994;48.204;16.516;2022-07-25T06:06:06;19.80;99.90
35894;DHT22;21994;48.204;16.516;2022-07-25T06:08:34;19.90;99.90
35894;DHT22;21994;48.204;16.516;2022-07-25T06:11:00;20.00;99.90
35894;DHT22;21994;48.204;16.516;2022-07-25T06:13:29;20.10;99.90
35894;DHT22;21994;48.204;16.516;2022-07-25T06:15:55;20.30;99.90
35894;DHT22;21994;48.204;16.516;2022-07-25T06:18:22;20.20;99.90
35894;DHT22;21994;48.204;16.516;2022-07-25T06:20:48;20.30;99.90
35894;DHT22;21994;48.204;16.516;2022-07-25T06:23:15;20.50;99.90
35894;DHT22;21994;48.204;16.516;2022-07-25T06:25:41;20.70;99.90
35894;DHT22;21994;48.204;16.516;2022-07-25T06:28:07;20.80;99.90
35894;DHT22;21994;48.204;16.516;2022-07-25T06:30:33;20.80;99.90
35894;DHT22;21994;48.204;16.516;2022-07-25T06:32:59;21.10;99.90
35894;DHT22;21994;48.204;16.516;2022-07-25T06:35:25;21.20;99.90
35894;DHT22;21994;48.204;16.516;2022-07-25T06:37:51;21.20;99.90
35894;DHT22;21994;48.204;16.516;2022-07-25T06:40:17;21.50;99.90
35894;DHT22;21994;48.204;16.516;2022-07-25T06:42:44;21.70;99.90
35894;DHT22;21994;48.204;16.516;2022-07-25T06:45:12;22.00;98.70
35894;DHT22;21994;48.204;16.516;2022-07-25T06:47:40;22.20;97.60
35894;DHT22;21994;48.204;16.516;2022-07-25T06:50:09;22.30;98.60
35894;DHT22;21994;48.204;16.516;2022-07-25T06:52:37;22.40;98.50
35894;DHT22;21994;48.204;16.516;2022-07-25T06:55:05;22.40;98.40
35894;DHT22;21994;48.204;16.516;2022-07-25T06:57:32;22.50;98.00
35894;DHT22;21994;48.204;16.516;2022-07-25T06:59:57;22.70;96.60
35894;DHT22;21994;48.204;16.516;2022-07-25T07:02:23;23.00;97.40
35894;DHT22;21994;48.204;16.516;2022-07-25T07:04:49;23.30;96.40
35894;DHT22;21994;48.204;16.516;2022-07-25T07:07:16;23.60;96.00
35894;DHT22;21994;48.204;16.516;2022-07-25T07:09:43;23.90;96.60
35894;DHT22;21994;48.204;16.516;2022-07-25T07:12:09;24.20;94.10
35894;DHT22;21994;48.204;16.516;2022-07-25T07:14:35;24.60;94.00
35894;DHT22;21994;48.204;16.516;2022-07-25T07:17:04;24.80;94.40
35894;DHT22;21994;48.204;16.516;2022-07-25T07:19:30;25.00;92.90
35894;DHT22;21994;48.204;16.516;2022-07-25T07:21:56;25.30;92.00
35894;DHT22;21994;48.204;16.516;2022-07-25T07:24:22;25.40;91.30
35894;DHT22;21994;48.204;16.516;2022-07-25T07:26:48;25.70;92.00
35894;DHT22;21994;48.204;16.516;2022-07-25T07:29:14;25.90;90.20
35894;DHT22;21994;48.204;16.516;2022-07-25T07:31:40;26.10;88.60
35894;DHT22;21994;48.204;16.516;2022-07-25T07:34:06;26.40;91.70
35894;DHT22;21994;48.204;16.516;2022-07-25T07:36:32;26.60;90.20
35894;DHT22;21994;48.204;16.516;2022-07-25T07:38:57;26.80;87.80
35894;DHT22;21994;48.204;16.516;2022-07-25T07:41:23;26.90;87.30
35894;DHT22;21994;48.204;16.516;2022-07-25T07:43:49;27.20;86.60
35894;DHT22;21994;48.204;16.516;2022-07-25T07:46:15;27.20;86.50
35894;DHT22;21994;48.204;16.516;2022-07-25T07:48:41;27.40;86.40
35894;DHT22;21994;48.204;16.516;2022-07-25T07:51:07;27.60;86.20
35894;DHT22;21994;48.204;16.516;2022-07-25T07:53:33;27.60;84.80
35894;DHT22;21994;48.204;16.516;2022-07-25T07:56:17;27.80;85.70
35894;DHT22;21994;48.204;16.516;2022-07-25T07:58:44;27.90;86.50
35894;DHT22;21994;48.204;16.516;2022-07-25T08:01:10;28.20;87.40
35894;DHT22;21994;48.204;16.516;2022-07-25T08:03:36;28.50;84.70
35894;DHT22;21994;48.204;16.516;2022-07-25T08:06:02;28.60;81.40
35894;DHT22;21994;48.204;16.516;2022-07-25T08:08:28;28.70;81.70
35894;DHT22;21994;48.204;16.516;2022-07-25T08:10:54;28.80;80.80
35894;DHT22;21994;48.204;16.516;2022-07-25T08:13:23;28.60;79.00
35894;DHT22;21994;48.204;16.516;2022-07-25T08:15:52;28.90;82.10
35894;DHT22;21994;48.204;16.516;2022-07-25T08:18:23;29.10;80.50
35894;DHT22;21994;48.204;16.516;2022-07-25T08:20:50;29.30;79.40
35894;DHT22;21994;48.204;16.516;2022-07-25T08:23:17;29.50;80.80
35894;DHT22;21994;48.204;16.516;2022-07-25T08:25:44;29.50;81.20
35894;DHT22;21994;48.204;16.516;2022-07-25T08:28:11;29.40;79.10
35894;DHT22;21994;48.204;16.516;2022-07-25T08:30:38;29.70;78.50
35894;DHT22;21994;48.204;16.516;2022-07-25T08:33:07;29.80;80.00
35894;DHT22;21994;48.204;16.516;2022-07-25T08:35:38;29.80;77.40
35894;DHT22;21994;48.204;16.516;2022-07-25T08:38:06;30.00;79.40
35894;DHT22;21994;48.204;16.516;2022-07-25T08:40:32;30.30;77.30
35894;DHT22;21994;48.204;16.516;2022-07-25T08:42:59;30.60;76.60
35894;DHT22;21994;48.204;16.516;2022-07-25T08:45:26;30.90;74.80
35894;DHT22;21994;48.204;16.516;2022-07-25T08:47:54;30.90;75.90
35894;DHT22;21994;48.204;16.516;2022-07-25T08:50:26;30.70;74.80
35894;DHT22;21994;48.204;16.516;2022-07-25T08:52:53;30.90;74.20
35894;DHT22;21994;48.204;16.516;2022-07-25T08:55:22;30.80;75.30
35894;DHT22;21994;48.204;16.516;2022-07-25T08:57:51;31.00;73.60
35894;DHT22;21994;48.204;16.516;2022-07-25T09:00:20;31.50;76.20
35894;DHT22;21994;48.204;16.516;2022-07-25T09:02:55;31.70;71.70
35894;DHT22;21994;48.204;16.516;2022-07-25T09:05:23;31.50;71.10
35894;DHT22;21994;48.204;16.516;2022-07-25T09:07:51;31.40;74.40
35894;DHT22;21994;48.204;16.516;2022-07-25T09:10:21;31.40;71.30
35894;DHT22;21994;48.204;16.516;2022-07-25T09:13:00;32.00;70.80
35894;DHT22;21994;48.204;16.516;2022-07-25T09:18:02;32.90;67.40
35894;DHT22;21994;48.204;16.516;2022-07-25T09:20:40;33.00;68.40
35894;DHT22;21994;48.204;16.516;2022-07-25T09:23:14;32.90;67.90
35894;DHT22;21994;48.204;16.516;2022-07-25T09:28:41;32.60;66.60
35894;DHT22;21994;48.204;16.516;2022-07-25T09:31:09;32.50;66.50
35894;DHT22;21994;48.204;16.516;2022-07-25T09:33:54;32.80;70.00
35894;DHT22;21994;48.204;16.516;2022-07-25T09:36:25;33.20;68.40
35894;DHT22;21994;48.204;16.516;2022-07-25T09:38:54;33.40;66.90
35894;DHT22;21994;48.204;16.516;2022-07-25T09:41:39;33.70;65.10
35894;DHT22;21994;48.204;16.516;2022-07-25T09:44:19;33.70;66.70
35894;DHT22;21994;48.204;16.516;2022-07-25T09:46:54;33.60;66.60
35894;DHT22;21994;48.204;16.516;2022-07-25T09:49:41;33.50;64.40
35894;DHT22;21994;48.204;16.516;2022-07-25T09:52:08;33.40;65.00
35894;DHT22;21994;48.204;16.516;2022-07-25T09:54:35;33.60;64.90
35894;DHT22;21994;48.204;16.516;2022-07-25T09:57:01;33.70;68.10
35894;DHT22;21994;48.204;16.516;2022-07-25T09:59:27;33.80;64.30
35894;DHT22;21994;48.204;16.516;2022-07-25T10:02:05;33.80;66.60
35894;DHT22;21994;48.204;16.516;2022-07-25T10:04:44;34.40;67.10
35894;DHT22;21994;48.204;16.516;2022-07-25T10:07:13;34.30;63.80
35894;DHT22;21994;48.204;16.516;2022-07-25T10:09:48;34.50;65.60
35894;DHT22;21994;48.204;16.516;2022-07-25T10:12:21;34.50;64.80
35894;DHT22;21994;48.204;16.516;2022-07-25T10:17:39;34.70;65.00
35894;DHT22;21994;48.204;16.516;2022-07-25T10:20:07;34.80;66.30
35894;DHT22;21994;48.204;16.516;2022-07-25T10:22:42;35.10;64.90
35894;DHT22;21994;48.204;16.516;2022-07-25T10:25:19;35.50;65.50
35894;DHT22;21994;48.204;16.516;2022-07-25T10:27:49;35.90;64.70
35894;DHT22;21994;48.204;16.516;2022-07-25T10:30:33;36.00;64.90
35894;DHT22;21994;48.204;16.516;2022-07-25T10:33:10;36.00;63.80
35894;DHT22;21994;48.204;16.516;2022-07-25T10:35:41;35.90;65.90
35894;DHT22;21994;48.204;16.516;2022-07-25T10:38:07;36.20;64.30
35894;DHT22;21994;48.204;16.516;2022-07-25T10:40:40;36.80;65.00
35894;DHT22;21994;48.204;16.516;2022-07-25T10:45:52;36.90;63.10
35894;DHT22;21994;48.204;16.516;2022-07-25T10:48:30;36.40;62.50
35894;DHT22;21994;48.204;16.516;2022-07-25T10:51:01;35.90;66.20
35894;DHT22;21994;48.204;16.516;2022-07-25T10:56:13;36.50;63.80
35894;DHT22;21994;48.204;16.516;2022-07-25T10:58:48;36.80;66.40
35894;DHT22;21994;48.204;16.516;2022-07-25T11:01:23;36.50;63.60
35894;DHT22;21994;48.204;16.516;2022-07-25T11:03:52;36.10;64.10
35894;DHT22;21994;48.204;16.516;2022-07-25T11:06:39;36.00;64.00
35894;DHT22;21994;48.204;16.516;2022-07-25T11:09:22;36.10;64.70
35894;DHT22;21994;48.204;16.516;2022-07-25T11:11:52;35.90;65.40
35894;DHT22;21994;48.204;16.516;2022-07-25T11:14:28;35.60;65.00
35894;DHT22;21994;48.204;16.516;2022-07-25T11:17:08;35.70;64.60
35894;DHT22;21994;48.204;16.516;2022-07-25T11:19:39;35.60;64.20
35894;DHT22;21994;48.204;16.516;2022-07-25T11:22:07;35.70;65.30
35894;DHT22;21994;48.204;16.516;2022-07-25T11:27:01;35.60;64.70
35894;DHT22;21994;48.204;16.516;2022-07-25T11:29:27;35.50;65.80
35894;DHT22;21994;48.204;16.516;2022-07-25T11:32:00;35.50;66.40
35894;DHT22;21994;48.204;16.516;2022-07-25T11:34:32;35.20;64.10
35894;DHT22;21994;48.204;16.516;2022-07-25T11:37:02;34.80;65.50
35894;DHT22;21994;48.204;16.516;2022-07-25T11:39:32;34.60;67.20
35894;DHT22;21994;48.204;16.516;2022-07-25T11:42:10;34.30;66.80
35894;DHT22;21994;48.204;16.516;2022-07-25T11:47:08;34.20;64.60
35894;DHT22;21994;48.204;16.516;2022-07-25T11:49:47;34.00;66.40
35894;DHT22;21994;48.204;16.516;2022-07-25T11:54:57;34.00;68.10
35894;DHT22;21994;48.204;16.516;2022-07-25T11:57:27;34.10;66.30
35894;DHT22;21994;48.204;16.516;2022-07-25T11:59:56;34.20;67.60
35894;DHT22;21994;48.204;16.516;2022-07-25T12:02:29;34.30;67.80
35894;DHT22;21994;48.204;16.516;2022-07-25T12:05:01;34.20;66.60
35894;DHT22;21994;48.204;16.516;2022-07-25T12:07:51;34.30;65.60
35894;DHT22;21994;48.204;16.516;2022-07-25T12:10:22;34.20;69.10
35894;DHT22;21994;48.204;16.516;2022-07-25T12:12:51;34.20;66.90
35894;DHT22;21994;48.204;16.516;2022-07-25T12:15:26;34.30;69.80
35894;DHT22;21994;48.204;16.516;2022-07-25T12:17:57;34.50;66.50
35894;DHT22;21994;48.204;16.516;2022-07-25T12:20:26;34.50;65.50
35894;DHT22;21994;48.204;16.516;2022-07-25T12:23:00;34.50;67.10
35894;DHT22;21994;48.204;16.516;2022-07-25T12:25:30;34.30;68.20
35894;DHT22;21994;48.204;16.516;2022-07-25T12:27:57;34.30;67.80
35894;DHT22;21994;48.204;16.516;2022-07-25T12:30:24;34.40;65.50
35894;DHT22;21994;48.204;16.516;2022-07-25T12:32:52;34.40;66.50
35894;DHT22;21994;48.204;16.516;2022-07-25T12:35:18;34.50;68.80
35894;DHT22;21994;48.204;16.516;2022-07-25T12:37:44;34.30;69.50
35894;DHT22;21994;48.204;16.516;2022-07-25T12:40:13;34.20;68.70
35894;DHT22;21994;48.204;16.516;2022-07-25T12:42:39;34.30;67.30
35894;DHT22;21994;48.204;16.516;2022-07-25T12:45:06;34.30;67.80
35894;DHT22;21994;48.204;16.516;2022-07-25T12:47:32;34.50;67.30
35894;DHT22;21994;48.204;16.516;2022-07-25T12:49:59;34.60;65.70
35894;DHT22;21994;48.204;16.516;2022-07-25T12:52:25;34.60;68.70
35894;DHT22;21994;48.204;16.516;2022-07-25T12:54:51;34.70;65.80
35894;DHT22;21994;48.204;16.516;2022-07-25T12:57:17;34.70;66.10
35894;DHT22;21994;48.204;16.516;2022-07-25T12:59:45;34.70;66.70
35894;DHT22;21994;48.204;16.516;2022-07-25T13:02:11;34.70;65.90
35894;DHT22;21994;48.204;16.516;2022-07-25T13:04:37;34.80;68.20
35894;DHT22;21994;48.204;16.516;2022-07-25T13:07:03;34.90;64.60
35894;DHT22;21994;48.204;16.516;2022-07-25T13:09:29;34.90;66.00
35894;DHT22;21994;48.204;16.516;2022-07-25T13:11:56;35.00;66.50
35894;DHT22;21994;48.204;16.516;2022-07-25T13:14:23;34.90;64.80
35894;DHT22;21994;48.204;16.516;2022-07-25T13:16:49;34.80;66.70
35894;DHT22;21994;48.204;16.516;2022-07-25T13:19:15;34.90;65.50
35894;DHT22;21994;48.204;16.516;2022-07-25T13:21:42;35.00;67.10
35894;DHT22;21994;48.204;16.516;2022-07-25T13:24:09;35.00;66.50
35894;DHT22;21994;48.204;16.516;2022-07-25T13:26:37;35.20;67.80
35894;DHT22;21994;48.204;16.516;2022-07-25T13:29:04;35.30;66.30
35894;DHT22;21994;48.204;16.516;2022-07-25T13:35:35;35.60;65.40
35894;DHT22;21994;48.204;16.516;2022-07-25T13:43:17;35.50;64.60
35894;DHT22;21994;48.204;16.516;2022-07-25T13:45:43;35.60;69.50
35894;DHT22;21994;48.204;16.516;2022-07-25T13:48:09;36.00;64.60
35894;DHT22;21994;48.204;16.516;2022-07-25T13:50:35;36.00;66.40
35894;DHT22;21994;48.204;16.516;2022-07-25T13:53:01;36.10;65.20
35894;DHT22;21994;48.204;16.516;2022-07-25T13:55:30;35.70;66.00
35894;DHT22;21994;48.204;16.516;2022-07-25T13:57:57;35.70;65.80
35894;DHT22;21994;48.204;16.516;2022-07-25T14:00:23;35.70;67.40
35894;DHT22;21994;48.204;16.516;2022-07-25T14:02:49;35.80;64.30
35894;DHT22;21994;48.204;16.516;2022-07-25T14:05:15;35.90;63.30
35894;DHT22;21994;48.204;16.516;2022-07-25T14:07:42;35.90;65.90
35894;DHT22;21994;48.204;16.516;2022-07-25T14:10:08;36.10;66.80
35894;DHT22;21994;48.204;16.516;2022-07-25T14:12:35;36.10;66.10
35894;DHT22;21994;48.204;16.516;2022-07-25T14:15:04;36.10;64.00
35894;DHT22;21994;48.204;16.516;2022-07-25T14:17:32;36.20;66.30
35894;DHT22;21994;48.204;16.516;2022-07-25T14:19:58;36.20;64.40
35894;DHT22;21994;48.204;16.516;2022-07-25T14:22:24;36.10;69.10
35894;DHT22;21994;48.204;16.516;2022-07-25T14:24:50;36.20;65.30
35894;DHT22;21994;48.204;16.516;2022-07-25T14:27:16;36.40;66.20
35894;DHT22;21994;48.204;16.516;2022-07-25T14:29:42;36.40;66.00
35894;DHT22;21994;48.204;16.516;2022-07-25T14:32:08;36.40;65.70
35894;DHT22;21994;48.204;16.516;2022-07-25T14:34:34;36.50;65.00
35894;DHT22;21994;48.204;16.516;2022-07-25T14:37:01;36.60;65.10
35894;DHT22;21994;48.204;16.516;2022-07-25T14:39:27;36.50;62.30
35894;DHT22;21994;48.204;16.516;2022-07-25T14:41:53;36.70;64.80
35894;DHT22;21994;48.204;16.516;2022-07-25T14:44:19;36.80;65.20
35894;DHT22;21994;48.204;16.516;2022-07-25T14:46:46;36.80;63.20
35894;DHT22;21994;48.204;16.516;2022-07-25T14:49:14;36.70;64.20
35894;DHT22;21994;48.204;16.516;2022-07-25T14:51:42;36.70;63.70
35894;DHT22;21994;48.204;16.516;2022-07-25T14:54:11;36.70;65.30
35894;DHT22;21994;48.204;16.516;2022-07-25T14:56:37;36.40;63.10
35894;DHT22;21994;48.204;16.516;2022-07-25T14:59:05;36.20;65.60
35894;DHT22;21994;48.204;16.516;2022-07-25T15:01:31;36.30;63.60
35894;DHT22;21994;48.204;16.516;2022-07-25T15:03:57;36.40;64.40
35894;DHT22;21994;48.204;16.516;2022-07-25T15:06:23;36.30;63.70
35894;DHT22;21994;48.204;16.516;2022-07-25T15:08:49;36.20;63.70
35894;DHT22;21994;48.204;16.516;2022-07-25T15:11:17;36.30;65.80
35894;DHT22;21994;48.204;16.516;2022-07-25T15:13:43;36.50;64.10
35894;DHT22;21994;48.204;16.516;2022-07-25T15:16:11;36.70;63.60
35894;DHT22;21994;48.204;16.516;2022-07-25T15:18:38;36.60;63.70
35894;DHT22;21994;48.204;16.516;2022-07-25T15:21:04;36.40;63.60
35894;DHT22;21994;48.204;16.516;2022-07-25T15:23:30;36.50;64.60
35894;DHT22;21994;48.204;16.516;2022-07-25T15:25:57;36.60;65.30
35894;DHT22;21994;48.204;16.516;2022-07-25T15:28:24;36.50;64.00
35894;DHT22;21994;48.204;16.516;2022-07-25T15:30:50;36.50;65.00
35894;DHT22;21994;48.204;16.516;2022-07-25T15:33:17;36.50;65.50
35894;DHT22;21994;48.204;16.516;2022-07-25T15:35:44;36.50;64.00
35894;DHT22;21994;48.204;16.516;2022-07-25T15:38:12;36.50;64.40
35894;DHT22;21994;48.204;16.516;2022-07-25T15:40:40;36.60;64.10
35894;DHT22;21994;48.204;16.516;2022-07-25T15:43:07;36.50;64.90
35894;DHT22;21994;48.204;16.516;2022-07-25T15:45:44;36.50;64.90
35894;DHT22;21994;48.204;16.516;2022-07-25T15:48:12;36.50;63.00
35894;DHT22;21994;48.204;16.516;2022-07-25T15:50:41;36.50;63.70